Saturday, December 15, 2018, 1:49 PM GMT
Back to Local

CWNC, Cobourg, Ont.

Location: , , Canada Lat: 43.95
Local Time: 1:49 PM GMT (13:49 GMT) Lon: -78.167
Time Zone: GMT Elev: 255 ft

Show me the last for .
Show Coded

Time T Td Feel RH Dir Speed Gust Alt SLP Vis Weather Sky Remarks
2018-12-15 13:00 32 31 - 96 - Calm - - 30.23 0 None
2018-12-15 12:00 33 31 - 92 350° 2 - - 30.24 0 None
2018-12-15 11:00 35 31 30 87 320° 6 - - 30.22 0 None
2018-12-15 10:00 34 32 - 91 310° 2 - - 30.20 0 None
2018-12-15 09:00 36 33 - 89 350° 2 - - 30.17 0 None
2018-12-15 08:00 36 34 - 92 350° 2 - - 30.16 0 None
2018-12-15 07:00 37 35 33 92 350° 5 - - 30.15 0 None
2018-12-15 06:00 38 37 - 95 300° 2 - - 30.13 0 None
2018-12-15 05:00 38 37 35 95 300° 5 - - 30.12 0 None
2018-12-15 04:00 36 35 33 96 270° 3 - - 30.12 0 None
2018-12-15 03:00 38 37 - 97 290° 2 - - 30.14 0 None
2018-12-15 02:00 35 36 - 105 - Calm - - 30.15 0 None
2018-12-15 01:00 37 36 - 97 270° 1 - - 30.14 0 None
2018-12-15 00:00 38 37 - 95 - Calm - - 30.14 0 None
2018-12-14 23:00 37 37 34 102 360° 3 - - 30.16 0 None
2018-12-14 22:00 38 37 - 95 20° 2 - - 30.15 0 None
2018-12-14 21:00 38 37 - 95 120° 2 - - 30.14 0 None
2018-12-14 20:00 38 37 36 95 110° 3 - - 30.13 0 1-hr Precip Total: 0.01"
2018-12-14 19:00 37 36 - 95 110° 2 - - 30.16 0 1-hr Precip Total: 0.01"
2018-12-14 18:00 38 36 - 92 150° 1 - - 30.17 0 1-hr Precip Total: 0.01"
2018-12-14 17:00 38 37 - 94 - Calm - - 30.20 0 1-hr Precip Total: 0.02"
2018-12-14 16:00 38 37 - 95 190° 1 - - 30.23 0 1-hr Precip Total: 0.05"
2018-12-14 15:00 38 36 - 94 120° 2 - - 30.25 0 1-hr Precip Total: 0.01"
2018-12-14 14:00 37 35 - 93 100° 2 - - 30.25 0 None

Support USWX by starting your Amazon purchase here.